aviador You're here:

KBKW Decoded Metar

BECKLEY in WV, USA
Report Time2017-06-25 13:51:00
UTC Time2017-06-25 13:56:46
Flight Rules vfr VFR
Wind320° at 07 kt
W.Decomp.*RWY 01: 5.0 kt HW 4.9 kt LCW
RWY 28: 4.9 kt HW 5.0 kt RCW
W.Rank320° ranks 13
Current wind is below 320° avg. (7.8)
Visibility9999 m
Phenomena:N/A
Clouds:Few 028 Hf
Expected CloudBase > 3,600 ft AGL from Temp-Dew spread
CeilingNone
Temp19°C (ISA +9)
Dew Point10°C (56% RH)
AAT16.5°C
QNH1023 hPa
Density Alt3,392 ft
Elevation2,507 ft
Report Wrong Elevation
Raw Report
METAR KBKW 251351Z AUTO 32007KT 10SM FEW028 19/10 A3020 RMK AO2 SLP203
T01890100 TSNO=

Extra information for KBKW:More info

Metar Taf Metar & Taf Last 4 Metars F.Rules Stats Wind Profile Meteogram Temp Stats Airport Information Weather charts Add Link Nearby VenuesMetar ALERT Operation Metar Decoded Social comments

AIRNAV info for KBKW